createdAt,value
2018-12-20T00:01:23.106Z,41.57
2018-12-20T00:03:51.493Z,40.50
2018-12-20T00:06:19.995Z,35.97
2018-12-20T00:08:48.287Z,37.77
2018-12-20T00:11:16.784Z,44.23
2018-12-20T00:13:45.179Z,38.07
2018-12-20T00:16:13.740Z,36.73
2018-12-20T00:18:42.157Z,41.73
2018-12-20T00:21:10.366Z,41.00
2018-12-20T00:23:38.567Z,42.57
2018-12-20T00:26:06.725Z,41.40
2018-12-20T00:28:34.936Z,39.30
2018-12-20T00:31:03.275Z,44.67
2018-12-20T00:33:31.706Z,39.80
2018-12-20T00:36:00.209Z,43.20
2018-12-20T00:38:28.654Z,35.87
2018-12-20T00:40:57.095Z,41.03
2018-12-20T00:43:25.449Z,40.30
2018-12-20T00:45:53.663Z,40.20
2018-12-20T00:48:21.988Z,39.63
2018-12-20T00:50:50.412Z,43.47
2018-12-20T00:53:18.578Z,44.63
2018-12-20T00:55:46.832Z,45.63
2018-12-20T00:58:15.168Z,46.47
2018-12-20T01:00:43.929Z,43.93
2018-12-20T01:03:12.307Z,41.97
2018-12-20T01:05:40.507Z,43.97
2018-12-20T01:08:08.731Z,45.57
2018-12-20T01:10:36.963Z,44.43
2018-12-20T01:13:05.942Z,46.37
2018-12-20T01:15:34.185Z,40.57
2018-12-20T01:18:02.364Z,42.27
2018-12-20T01:20:30.628Z,41.50
2018-12-20T01:22:58.944Z,40.67
2018-12-20T01:25:27.143Z,39.23
2018-12-20T01:27:55.735Z,40.07
2018-12-20T01:30:24.042Z,41.20
2018-12-20T01:32:52.529Z,45.13
2018-12-20T01:35:20.869Z,47.23
2018-12-20T01:37:49.090Z,48.37
2018-12-20T01:40:17.374Z,46.23
2018-12-20T01:42:45.675Z,47.03
2018-12-20T01:45:13.989Z,44.47
2018-12-20T01:47:42.283Z,46.60
2018-12-20T01:50:10.492Z,42.10
2018-12-20T01:52:38.831Z,42.03
2018-12-20T01:55:07.316Z,40.33
2018-12-20T01:57:35.758Z,43.53
2018-12-20T02:00:08.304Z,41.67
2018-12-20T02:02:36.554Z,43.13
2018-12-20T02:05:04.990Z,43.13
2018-12-20T02:07:33.233Z,41.83
2018-12-20T02:10:01.746Z,41.63
2018-12-20T02:12:30.074Z,43.10
2018-12-20T02:15:01.896Z,45.90
2018-12-20T02:20:25.640Z,44.90
2018-12-20T02:22:54.018Z,43.50
2018-12-20T02:25:22.353Z,47.10
2018-12-20T02:27:50.620Z,39.20
2018-12-20T02:30:19.128Z,42.97
2018-12-20T02:32:47.511Z,41.53
2018-12-20T02:35:15.775Z,42.70
2018-12-20T02:37:44.119Z,48.90
2018-12-20T02:40:12.631Z,43.53
2018-12-20T02:42:41.085Z,49.53
2018-12-20T02:45:10.929Z,43.70
2018-12-20T02:47:39.508Z,46.57
2018-12-20T02:50:08.054Z,46.90
2018-12-20T02:52:37.590Z,46.17
2018-12-20T02:55:06.631Z,42.67
2018-12-20T02:57:34.987Z,40.47
2018-12-20T03:00:05.118Z,42.47
2018-12-20T03:02:33.641Z,44.23
2018-12-20T03:05:01.967Z,42.27
2018-12-20T03:07:30.334Z,40.57
2018-12-20T03:09:58.602Z,44.33
2018-12-20T03:12:26.809Z,40.20
2018-12-20T03:14:55.236Z,44.67
2018-12-20T03:17:23.452Z,43.90
2018-12-20T03:19:52.199Z,42.17
2018-12-20T03:22:20.754Z,46.50
2018-12-20T03:24:49.133Z,41.93
2018-12-20T03:27:17.537Z,40.63
2018-12-20T03:29:46.009Z,39.60
2018-12-20T03:32:14.298Z,43.90
2018-12-20T03:34:42.659Z,44.53
2018-12-20T03:37:11.141Z,41.83
2018-12-20T03:39:39.622Z,43.83
2018-12-20T03:42:08.024Z,42.37
2018-12-20T03:44:36.360Z,43.67
2018-12-20T03:47:04.737Z,44.93
2018-12-20T03:49:33.212Z,46.20
2018-12-20T03:52:01.660Z,42.97
2018-12-20T03:54:29.944Z,48.97
2018-12-20T03:56:58.610Z,45.93
2018-12-20T03:59:26.933Z,47.83
2018-12-20T04:01:55.069Z,44.07
2018-12-20T04:04:23.417Z,45.17
2018-12-20T04:06:51.726Z,50.13
2018-12-20T04:09:20.051Z,45.70
2018-12-20T04:11:48.385Z,53.07
2018-12-20T04:14:16.815Z,46.53
2018-12-20T04:16:45.313Z,52.10
2018-12-20T04:19:13.761Z,49.50
2018-12-20T04:21:42.204Z,49.83
2018-12-20T04:24:10.466Z,53.63
2018-12-20T04:26:38.684Z,48.57
2018-12-20T04:29:06.848Z,48.80
2018-12-20T04:31:35.081Z,45.37
2018-12-20T04:34:03.465Z,49.87
2018-12-20T04:36:31.846Z,50.00
2018-12-20T04:39:00.139Z,52.17
2018-12-20T04:41:28.502Z,50.80
2018-12-20T04:43:56.847Z,50.07
2018-12-20T04:46:25.213Z,56.63
2018-12-20T04:48:53.561Z,50.87
2018-12-20T04:51:22.064Z,49.90
2018-12-20T04:53:50.257Z,52.63
2018-12-20T04:56:18.634Z,54.30
2018-12-20T04:58:46.945Z,55.43
2018-12-20T05:01:15.441Z,51.70
2018-12-20T05:03:43.958Z,57.90
2018-12-20T05:06:12.386Z,60.47
2018-12-20T05:08:40.714Z,51.17
2018-12-20T05:11:09.124Z,54.67
2018-12-20T05:13:37.380Z,53.50
2018-12-20T05:16:05.794Z,53.73
2018-12-20T05:18:34.229Z,55.67
2018-12-20T05:21:02.435Z,53.77
2018-12-20T05:23:30.581Z,57.40
2018-12-20T05:25:59.222Z,48.10
2018-12-20T05:28:27.626Z,54.27
2018-12-20T05:30:55.970Z,47.23
2018-12-20T05:33:24.441Z,45.10
2018-12-20T05:35:52.734Z,48.03
2018-12-20T05:38:21.028Z,51.10
2018-12-20T05:40:49.260Z,55.30
2018-12-20T05:43:17.566Z,54.30
2018-12-20T05:45:46.001Z,55.47
2018-12-20T05:48:14.518Z,52.00
2018-12-20T05:50:43.006Z,52.37
2018-12-20T05:53:11.348Z,45.23
2018-12-20T05:55:39.665Z,42.73
2018-12-20T05:58:07.991Z,48.77
2018-12-20T06:00:36.604Z,53.33
2018-12-20T06:03:04.897Z,45.60
2018-12-20T06:05:33.284Z,45.67
2018-12-20T06:08:01.907Z,51.97
2018-12-20T06:10:30.156Z,45.83
2018-12-20T06:12:58.702Z,48.37
2018-12-20T06:15:27.184Z,56.47
2018-12-20T06:17:55.351Z,51.60
2018-12-20T06:20:23.511Z,49.80
2018-12-20T06:22:51.863Z,56.33
2018-12-20T06:25:21.423Z,58.93
2018-12-20T06:27:49.778Z,52.57
2018-12-20T06:30:17.983Z,55.60
2018-12-20T06:32:46.264Z,54.97
2018-12-20T06:35:14.576Z,49.47
2018-12-20T06:37:43.006Z,55.27
2018-12-20T06:40:11.165Z,54.83
2018-12-20T06:42:39.322Z,53.20
2018-12-20T06:45:07.641Z,51.60
2018-12-20T06:47:35.797Z,48.23
2018-12-20T06:50:04.683Z,56.10
2018-12-20T06:52:32.964Z,52.90
2018-12-20T06:55:01.120Z,57.30
2018-12-20T06:57:29.590Z,53.37
2018-12-20T06:59:58.321Z,61.83
2018-12-20T07:02:26.699Z,56.00
2018-12-20T07:04:54.836Z,58.67
2018-12-20T07:07:23.152Z,58.77
2018-12-20T07:09:51.328Z,55.47
2018-12-20T07:12:19.498Z,56.57
2018-12-20T07:14:47.714Z,55.43
2018-12-20T07:17:16.005Z,52.43
2018-12-20T07:19:44.238Z,58.37
2018-12-20T07:22:12.432Z,55.00
2018-12-20T07:24:40.675Z,49.40
2018-12-20T07:27:08.843Z,57.17
2018-12-20T07:29:37.107Z,55.83
2018-12-20T07:32:05.322Z,58.80
2018-12-20T07:34:33.519Z,56.37
2018-12-20T07:37:01.739Z,54.43
2018-12-20T07:39:30.407Z,58.03
2018-12-20T07:41:58.657Z,57.73
2018-12-20T07:44:26.883Z,58.50
2018-12-20T07:46:55.131Z,55.63
2018-12-20T07:49:23.331Z,59.60
2018-12-20T07:51:51.538Z,60.30
2018-12-20T07:54:19.689Z,63.10
2018-12-20T07:56:47.927Z,61.40
2018-12-20T07:59:23.368Z,67.33
2018-12-20T08:01:46.363Z,55.23
2018-12-20T08:04:14.649Z,60.83
2018-12-20T08:06:43.026Z,67.10
2018-12-20T08:09:11.186Z,67.47
2018-12-20T08:11:39.345Z,59.60
2018-12-20T08:14:07.574Z,56.07
2018-12-20T08:16:35.755Z,58.53
2018-12-20T08:19:04.099Z,61.10
2018-12-20T08:21:32.258Z,57.57
2018-12-20T08:24:00.556Z,55.30
2018-12-20T08:26:28.769Z,60.87
2018-12-20T08:28:57.086Z,59.03
2018-12-20T08:31:25.277Z,66.13
2018-12-20T08:33:53.709Z,65.83
2018-12-20T08:36:22.075Z,65.03
2018-12-20T08:38:50.376Z,61.70
2018-12-20T08:41:18.711Z,60.57
2018-12-20T08:43:46.894Z,62.40
2018-12-20T08:46:15.260Z,61.60
2018-12-20T08:48:43.426Z,55.40
2018-12-20T08:51:11.624Z,54.93
2018-12-20T08:53:39.859Z,63.57
2018-12-20T08:56:07.991Z,59.03
2018-12-20T08:58:36.283Z,61.30
2018-12-20T09:01:04.598Z,63.57
2018-12-20T09:03:32.806Z,57.53
2018-12-20T09:06:01.002Z,65.37
2018-12-20T09:08:29.175Z,65.13
2018-12-20T09:10:57.369Z,55.70
2018-12-20T09:13:25.613Z,61.60
2018-12-20T09:15:53.857Z,67.67
2018-12-20T09:18:22.032Z,65.37
2018-12-20T09:20:50.216Z,60.87
2018-12-20T09:23:18.404Z,65.60
2018-12-20T09:25:46.581Z,58.23
2018-12-20T09:28:14.812Z,55.17
2018-12-20T09:30:43.004Z,54.53
2018-12-20T09:33:11.167Z,53.57
2018-12-20T09:35:39.623Z,54.30
2018-12-20T09:38:07.847Z,51.67
2018-12-20T09:40:36.030Z,50.73
2018-12-20T09:43:04.160Z,54.03
2018-12-20T09:45:32.425Z,58.27
2018-12-20T09:48:05.650Z,50.03
2018-12-20T09:50:33.928Z,54.73
2018-12-20T09:53:02.280Z,57.83
2018-12-20T09:55:30.564Z,58.13
2018-12-20T09:57:59.043Z,58.03
2018-12-20T10:00:27.207Z,68.67
2018-12-20T10:02:55.511Z,67.17
2018-12-20T10:05:25.424Z,61.83
2018-12-20T10:07:54.172Z,65.30
2018-12-20T10:10:22.439Z,73.33
2018-12-20T10:12:50.701Z,61.47
2018-12-20T10:15:18.920Z,60.27
2018-12-20T10:17:47.151Z,62.20
2018-12-20T10:20:15.428Z,61.77
2018-12-20T10:22:43.779Z,56.47
2018-12-20T10:25:12.061Z,66.17
2018-12-20T10:27:40.334Z,61.57
2018-12-20T10:30:08.965Z,59.83
2018-12-20T10:32:37.152Z,59.90
2018-12-20T10:35:05.470Z,62.17
2018-12-20T10:37:33.651Z,66.83
2018-12-20T10:40:01.861Z,67.60
2018-12-20T10:42:30.150Z,66.90
2018-12-20T10:44:58.483Z,72.03
2018-12-20T10:47:29.115Z,65.57
2018-12-20T10:49:56.932Z,67.77
2018-12-20T10:52:25.138Z,69.53
2018-12-20T10:54:53.528Z,70.90
2018-12-20T10:57:21.764Z,70.93
2018-12-20T10:59:49.932Z,68.50
2018-12-20T11:02:23.803Z,77.87
2018-12-20T11:04:57.656Z,73.37
2018-12-20T11:07:31.443Z,71.57
2018-12-20T11:10:05.358Z,65.33
2018-12-20T11:12:39.431Z,68.73
2018-12-20T11:15:07.684Z,80.03
2018-12-20T11:17:37.433Z,75.03
2018-12-20T11:20:06.634Z,80.17
2018-12-20T11:22:34.889Z,82.03
2018-12-20T11:25:03.609Z,75.13
2018-12-20T11:27:31.835Z,83.43
2018-12-20T11:30:00.057Z,80.27
2018-12-20T11:32:28.395Z,77.30
2018-12-20T11:34:56.553Z,82.97
2018-12-20T11:37:24.727Z,82.33
2018-12-20T11:39:59.466Z,79.73
2018-12-20T11:42:23.252Z,72.57
2018-12-20T11:44:51.642Z,74.70
2018-12-20T11:47:25.648Z,77.07
2018-12-20T11:49:53.971Z,74.27
2018-12-20T11:52:22.278Z,71.63
2018-12-20T11:54:50.668Z,76.80
2018-12-20T11:57:18.880Z,70.33
2018-12-20T11:59:47.442Z,67.17
2018-12-20T12:02:24.248Z,73.47
2018-12-20T12:04:45.991Z,72.07
2018-12-20T12:07:14.187Z,70.77
2018-12-20T12:09:42.371Z,76.83
2018-12-20T12:12:10.729Z,73.57
2018-12-20T12:14:38.999Z,74.63
2018-12-20T12:17:07.185Z,64.97
2018-12-20T12:19:35.329Z,67.00
2018-12-20T12:22:03.548Z,65.03
2018-12-20T12:24:31.696Z,70.43
2018-12-20T12:27:00.007Z,65.53
2018-12-20T12:29:28.197Z,69.57
2018-12-20T12:31:56.396Z,66.17
2018-12-20T12:34:24.681Z,65.67
2018-12-20T12:36:52.867Z,67.97
2018-12-20T12:39:21.101Z,61.30
2018-12-20T12:41:49.375Z,66.93
2018-12-20T12:44:17.615Z,65.20
2018-12-20T12:46:45.904Z,54.63
2018-12-20T12:49:14.061Z,62.27
2018-12-20T12:51:43.802Z,59.33
2018-12-20T12:54:12.598Z,60.17
2018-12-20T12:56:40.860Z,71.60
2018-12-20T12:59:09.074Z,68.77
2018-12-20T13:01:37.678Z,66.37
2018-12-20T13:04:06.424Z,62.73
2018-12-20T13:06:34.672Z,63.93
2018-12-20T13:09:04.548Z,66.20
2018-12-20T13:11:32.886Z,62.50
2018-12-20T13:14:01.085Z,59.77
2018-12-20T13:16:29.276Z,58.27
2018-12-20T13:18:57.477Z,58.70
2018-12-20T13:21:25.837Z,64.80
2018-12-20T13:23:54.107Z,62.90
2018-12-20T13:26:22.350Z,60.63
2018-12-20T13:28:50.525Z,55.37
2018-12-20T13:31:18.673Z,64.90
2018-12-20T13:33:46.895Z,67.03
2018-12-20T13:36:15.256Z,60.30
2018-12-20T13:38:43.615Z,62.37
2018-12-20T13:41:11.840Z,62.83
2018-12-20T13:43:40.011Z,67.90
2018-12-20T13:46:08.172Z,60.70
2018-12-20T13:48:36.368Z,59.90
2018-12-20T13:51:04.643Z,68.00
2018-12-20T13:53:32.867Z,72.03
2018-12-20T13:56:01.063Z,65.03
2018-12-20T13:58:29.378Z,70.67
2018-12-20T14:00:57.604Z,63.50
2018-12-20T14:03:26.054Z,67.60
2018-12-20T14:05:54.330Z,74.80
2018-12-20T14:08:22.522Z,64.80
2018-12-20T14:10:50.812Z,64.63
2018-12-20T14:13:19.122Z,71.07
2018-12-20T14:15:47.326Z,64.73
2018-12-20T14:18:15.511Z,67.23
2018-12-20T14:20:43.772Z,67.30
2018-12-20T14:23:11.983Z,67.17
2018-12-20T14:25:40.411Z,72.13
2018-12-20T14:28:08.761Z,66.77
2018-12-20T14:30:37.258Z,77.00
2018-12-20T14:33:05.622Z,73.97
2018-12-20T14:35:33.798Z,72.53
2018-12-20T14:38:02.013Z,74.63
2018-12-20T14:40:30.213Z,66.63
2018-12-20T14:42:58.539Z,66.77
2018-12-20T14:45:26.711Z,59.53
2018-12-20T14:47:54.895Z,78.77
2018-12-20T14:50:23.197Z,64.77
2018-12-20T14:52:51.395Z,64.97
2018-12-20T14:55:19.714Z,68.87
2018-12-20T14:57:47.982Z,79.63
2018-12-20T15:00:16.157Z,79.73
2018-12-20T15:02:44.336Z,96.77
2018-12-20T15:05:12.504Z,95.40
2018-12-20T15:07:40.679Z,126.80
2018-12-20T15:10:08.978Z,101.40
2018-12-20T15:12:37.184Z,109.83
2018-12-20T15:15:05.811Z,74.63
2018-12-20T15:17:34.095Z,74.07
2018-12-20T15:20:02.374Z,65.50
2018-12-20T15:22:30.638Z,63.87
2018-12-20T15:24:58.923Z,67.67
2018-12-20T15:27:27.103Z,65.83
2018-12-20T15:29:55.291Z,68.07
2018-12-20T15:32:23.743Z,59.53
2018-12-20T15:34:51.879Z,60.13
2018-12-20T15:37:20.237Z,61.70
2018-12-20T15:39:48.395Z,58.10
2018-12-20T15:42:16.762Z,64.70
2018-12-20T15:44:45.001Z,57.90
2018-12-20T15:47:13.313Z,64.37
2018-12-20T15:49:42.103Z,63.57
2018-12-20T15:52:10.912Z,70.07
2018-12-20T15:54:39.101Z,69.60
2018-12-20T15:57:08.072Z,64.87
2018-12-20T15:59:36.348Z,70.57
2018-12-20T16:02:04.927Z,58.07
2018-12-20T16:04:33.104Z,60.57
2018-12-20T16:07:01.447Z,62.67
2018-12-20T16:09:29.797Z,67.57
2018-12-20T16:11:58.015Z,74.23
2018-12-20T16:14:26.234Z,64.47
2018-12-20T16:16:54.504Z,70.60
2018-12-20T16:19:22.736Z,72.53
2018-12-20T16:21:51.335Z,73.77
2018-12-20T16:24:19.577Z,64.17
2018-12-20T16:26:47.776Z,61.40
2018-12-20T16:29:16.108Z,64.83
2018-12-20T16:31:44.245Z,65.07
2018-12-20T16:34:12.449Z,65.77
2018-12-20T16:36:40.723Z,68.90
2018-12-20T16:39:09.084Z,66.57
2018-12-20T16:41:37.250Z,66.77
2018-12-20T16:44:05.409Z,82.87
2018-12-20T16:46:33.566Z,73.10
2018-12-20T16:49:01.776Z,70.47
2018-12-20T16:51:29.978Z,74.93
2018-12-20T16:53:58.235Z,72.97
2018-12-20T16:56:26.369Z,63.60
2018-12-20T16:58:54.554Z,70.47
2018-12-20T17:01:22.815Z,63.13
2018-12-20T17:03:51.213Z,76.43
2018-12-20T17:06:20.328Z,64.97
2018-12-20T17:08:48.710Z,74.53
2018-12-20T17:11:16.907Z,75.17
2018-12-20T17:13:45.128Z,71.17
2018-12-20T17:16:13.309Z,70.97
2018-12-20T17:18:41.559Z,74.47
2018-12-20T17:21:09.904Z,75.27
2018-12-20T17:23:38.485Z,78.23
2018-12-20T17:26:06.643Z,74.97
2018-12-20T17:28:34.821Z,79.77
2018-12-20T17:31:03.182Z,75.90
2018-12-20T17:33:31.396Z,74.47
2018-12-20T17:35:59.592Z,79.40
2018-12-20T17:38:27.939Z,88.77
2018-12-20T17:40:56.184Z,83.43
2018-12-20T17:43:24.374Z,80.63
2018-12-20T17:45:52.626Z,78.97
2018-12-20T17:48:28.986Z,77.23
2018-12-20T17:50:51.104Z,83.07
2018-12-20T17:53:19.262Z,83.10
2018-12-20T17:55:47.451Z,69.97
2018-12-20T17:58:15.789Z,71.33
2018-12-20T18:00:43.997Z,74.57
2018-12-20T18:03:12.155Z,81.43
2018-12-20T18:05:40.301Z,79.87
2018-12-20T18:08:08.474Z,91.87
2018-12-20T18:10:36.722Z,80.13
2018-12-20T18:13:05.139Z,79.47
2018-12-20T18:15:33.375Z,72.17
2018-12-20T18:18:01.715Z,69.80
2018-12-20T18:20:29.907Z,74.33
2018-12-20T18:22:58.100Z,69.97
2018-12-20T18:25:26.326Z,75.07
2018-12-20T18:27:54.512Z,76.53
2018-12-20T18:30:22.955Z,77.43
2018-12-20T18:32:51.138Z,75.13
2018-12-20T18:35:19.673Z,73.37
2018-12-20T18:37:48.263Z,82.43
2018-12-20T18:40:16.835Z,76.93
2018-12-20T18:42:45.410Z,66.90
2018-12-20T18:45:14.189Z,69.60
2018-12-20T18:47:42.431Z,65.53
2018-12-20T18:50:10.641Z,65.97
2018-12-20T18:52:38.794Z,60.53
2018-12-20T18:55:07.076Z,61.03
2018-12-20T18:57:35.281Z,57.43
2018-12-20T19:00:04.630Z,61.20
2018-12-20T19:02:32.916Z,60.60
2018-12-20T19:05:01.171Z,72.37
2018-12-20T19:07:29.457Z,73.23
2018-12-20T19:09:57.772Z,78.03
2018-12-20T19:12:26.116Z,77.70
2018-12-20T19:14:54.328Z,67.83
2018-12-20T19:17:22.555Z,81.03
2018-12-20T19:19:56.221Z,75.57
2018-12-20T19:22:21.407Z,77.27
2018-12-20T19:24:49.676Z,64.17
2018-12-20T19:27:17.891Z,67.03
2018-12-20T19:29:46.116Z,71.93
2018-12-20T19:32:14.519Z,73.67
2018-12-20T19:34:42.724Z,69.20
2018-12-20T19:37:10.949Z,71.43
2018-12-20T19:39:39.142Z,68.50
2018-12-20T19:42:09.589Z,64.13
2018-12-20T19:44:37.756Z,66.80
2018-12-20T19:47:05.972Z,64.93
2018-12-20T19:49:34.313Z,74.47
2018-12-20T19:52:02.583Z,76.87
2018-12-20T19:54:30.816Z,67.77
2018-12-20T19:56:59.067Z,70.57
2018-12-20T19:59:27.399Z,59.83
2018-12-20T20:02:04.286Z,63.77
2018-12-20T20:04:25.934Z,67.90
2018-12-20T20:06:54.277Z,61.80
2018-12-20T20:09:22.460Z,64.80
2018-12-20T20:11:50.755Z,58.33
2018-12-20T20:14:19.216Z,53.57
2018-12-20T20:16:50.834Z,66.87
2018-12-20T20:19:17.709Z,60.57
2018-12-20T20:21:45.979Z,68.83
2018-12-20T20:24:14.277Z,62.17
2018-12-20T20:26:42.553Z,58.30
2018-12-20T20:29:10.826Z,60.70
2018-12-20T20:31:39.020Z,59.57
2018-12-20T20:34:07.358Z,53.97
2018-12-20T20:36:35.858Z,53.10
2018-12-20T20:39:05.975Z,54.63
2018-12-20T20:41:35.152Z,50.17
2018-12-20T20:44:03.656Z,54.17
2018-12-20T20:46:31.931Z,59.13
2018-12-20T20:49:00.156Z,50.50
2018-12-20T20:51:28.485Z,55.97
2018-12-20T20:53:56.733Z,55.83
2018-12-20T20:56:25.043Z,54.50
2018-12-20T20:58:53.219Z,58.20
2018-12-20T21:01:21.517Z,53.87
2018-12-20T21:03:49.735Z,58.47
2018-12-20T21:06:18.015Z,49.50
2018-12-20T21:08:46.234Z,54.97
2018-12-20T21:11:14.518Z,55.93
2018-12-20T21:13:42.743Z,49.03
2018-12-20T21:16:10.890Z,51.40
2018-12-20T21:18:39.059Z,57.60
2018-12-20T21:21:07.345Z,55.67
2018-12-20T21:23:35.569Z,54.03
2018-12-20T21:26:03.751Z,52.07
2018-12-20T21:28:32.003Z,41.07
2018-12-20T21:31:00.190Z,46.37
2018-12-20T21:33:28.416Z,63.80
2018-12-20T21:35:56.756Z,53.27
2018-12-20T21:38:25.052Z,50.63
2018-12-20T21:40:53.288Z,54.23
2018-12-20T21:43:21.588Z,52.13
2018-12-20T21:45:49.954Z,52.13
2018-12-20T21:48:18.460Z,52.23
2018-12-20T21:50:46.695Z,53.17
2018-12-20T21:53:15.007Z,48.97
2018-12-20T21:55:43.419Z,57.93
2018-12-20T21:58:13.546Z,53.20
2018-12-20T22:00:42.012Z,56.13
2018-12-20T22:03:10.208Z,54.17
2018-12-20T22:05:38.403Z,47.07
2018-12-20T22:08:06.560Z,52.43
2018-12-20T22:10:34.777Z,50.27
2018-12-20T22:13:03.006Z,53.07
2018-12-20T22:15:31.237Z,48.10
2018-12-20T22:18:05.392Z,52.13
2018-12-20T22:20:35.066Z,54.73
2018-12-20T22:23:03.428Z,55.53
2018-12-20T22:25:31.659Z,50.13
2018-12-20T22:27:59.843Z,52.73
2018-12-20T22:30:28.118Z,54.57
2018-12-20T22:32:56.314Z,55.10
2018-12-20T22:35:24.579Z,55.70
2018-12-20T22:37:52.751Z,48.00
2018-12-20T22:40:20.971Z,45.87
2018-12-20T22:42:49.189Z,45.67
2018-12-20T22:45:17.731Z,51.93
2018-12-20T22:47:46.071Z,47.30
2018-12-20T22:50:14.372Z,50.23
2018-12-20T22:52:42.613Z,49.63
2018-12-20T22:55:10.898Z,53.33
2018-12-20T22:57:39.062Z,42.13
2018-12-20T23:00:09.565Z,50.03
2018-12-20T23:02:37.799Z,47.93
2018-12-20T23:05:06.176Z,48.30
2018-12-20T23:07:38.117Z,48.47
2018-12-20T23:10:07.119Z,41.57
2018-12-20T23:12:35.434Z,41.17
2018-12-20T23:15:04.379Z,41.00
2018-12-20T23:17:32.592Z,36.40
2018-12-20T23:20:00.770Z,39.10
2018-12-20T23:22:28.959Z,41.10
2018-12-20T23:24:57.226Z,35.73
2018-12-20T23:27:25.468Z,39.70
2018-12-20T23:29:53.691Z,33.80
2018-12-20T23:32:21.868Z,39.50
2018-12-20T23:34:50.057Z,39.33
2018-12-20T23:37:18.404Z,35.07
2018-12-20T23:39:46.661Z,39.60
2018-12-20T23:42:14.907Z,39.50
2018-12-20T23:44:43.100Z,37.77
2018-12-20T23:47:11.509Z,39.27
2018-12-20T23:49:39.687Z,35.80
2018-12-20T23:52:07.934Z,45.37
2018-12-20T23:54:36.248Z,38.97
2018-12-20T23:57:04.510Z,41.27
2018-12-20T23:59:32.903Z,43.03
